createdAt,value
2022-11-16T04:46:00.024Z,99606.16
2022-11-16T04:49:04.003Z,99606.16
2022-11-16T04:52:07.033Z,99602.34
2022-11-16T04:55:10.345Z,99605.66
2022-11-16T04:58:13.220Z,99600.22
2022-11-16T05:01:16.379Z,99604.28
2022-11-16T05:04:19.047Z,99597.28
2022-11-16T05:07:23.338Z,99599.81
2022-11-16T05:10:26.375Z,99599.91
2022-11-16T05:13:29.960Z,99597.91
2022-11-16T05:16:33.708Z,99593.59
2022-11-16T05:19:55.212Z,99601.31
2022-11-16T05:22:58.605Z,99590.28
2022-11-16T05:26:01.952Z,99592.34
2022-11-16T05:29:04.901Z,99593.09
2022-11-16T05:32:08.519Z,99591.97
2022-11-16T05:35:11.115Z,99585.75
2022-11-16T05:38:14.099Z,99573.41
2022-11-16T05:41:17.098Z,99569.66
2022-11-16T05:44:20.221Z,99569.66
2022-11-16T05:47:22.873Z,99565.41
2022-11-16T05:50:25.738Z,99560.09
2022-11-16T05:53:35.349Z,99562.72
2022-11-16T05:56:38.557Z,99554.78
2022-11-16T05:59:41.298Z,99549.44
2022-11-16T06:02:44.107Z,99548.59
2022-11-16T06:05:48.790Z,99542.91
2022-11-16T06:08:51.788Z,99544.81
2022-11-16T06:11:55.918Z,99541.31
2022-11-16T06:14:58.535Z,99545.59
2022-11-16T06:18:04.522Z,99542.91
2022-11-16T06:21:08.339Z,99549.84
2022-11-16T06:24:11.223Z,99547.16
2022-11-16T06:27:13.764Z,99547.00
2022-11-16T06:30:17.923Z,99553.25
2022-11-16T06:33:20.603Z,99550.72
2022-11-16T06:36:23.515Z,99554.94
2022-11-16T06:39:26.197Z,99552.31
2022-11-16T06:42:29.155Z,99550.53
2022-11-16T06:45:32.670Z,99549.56
2022-11-16T06:48:36.666Z,99542.63
2022-11-16T06:51:41.197Z,99536.06
2022-11-16T06:54:44.294Z,99534.16
2022-11-16T06:57:47.435Z,99535.03
2022-11-16T07:00:51.106Z,99524.56
2022-11-16T07:03:53.804Z,99522.78
2022-11-16T07:06:57.189Z,99521.69
2022-11-16T07:10:03.296Z,99524.41
2022-11-16T07:13:06.625Z,99521.78
2022-11-16T07:16:11.614Z,99507.50
2022-11-16T07:19:14.649Z,99507.38
2022-11-16T07:22:18.438Z,99515.47
2022-11-16T07:25:21.876Z,99518.00
2022-11-16T07:28:24.614Z,99521.94
2022-11-16T07:31:28.476Z,99508.38
2022-11-16T07:34:41.218Z,99508.69
2022-11-16T07:37:44.294Z,99502.12
2022-11-16T07:40:47.561Z,99508.91
2022-11-16T07:43:53.388Z,99497.44
2022-11-16T07:47:01.106Z,99501.56
2022-11-16T07:50:06.359Z,99491.84
2022-11-16T07:53:09.727Z,99495.91
2022-11-16T07:56:14.769Z,99491.13
2022-11-16T07:59:18.899Z,99489.19
2022-11-16T08:02:22.047Z,99492.81
2022-11-16T08:05:25.303Z,99484.69
2022-11-16T08:08:27.958Z,99478.53
2022-11-16T08:11:31.043Z,99472.03
2022-11-16T08:14:33.711Z,99466.38
2022-11-16T08:17:37.025Z,99473.06
2022-11-16T08:20:40.173Z,99473.06
2022-11-16T08:23:44.950Z,99481.13
2022-11-16T08:26:48.153Z,99477.72
2022-11-16T08:29:51.178Z,99476.72
2022-11-16T08:32:53.768Z,99468.25
2022-11-16T08:36:17.320Z,99460.28
2022-11-16T08:39:20.310Z,99470.62
2022-11-16T08:42:23.296Z,99470.94
2022-11-16T08:45:25.876Z,99474.25
2022-11-16T08:48:29.331Z,99471.47
2022-11-16T08:51:33.765Z,99459.09
2022-11-16T08:54:41.354Z,99464.09
2022-11-16T09:32:03.860Z,99454.75
2022-11-16T09:35:07.032Z,99453.22
2022-11-16T09:38:10.074Z,99445.16
2022-11-16T09:41:16.012Z,99441.78
2022-11-16T09:44:33.757Z,99432.22
2022-11-16T09:47:49.850Z,99422.13
2022-11-16T09:51:08.225Z,99410.53
2022-11-16T09:54:16.821Z,99419.16
2022-11-16T09:57:25.111Z,99419.00
2022-11-16T10:00:30.870Z,99420.09
2022-11-16T10:03:41.280Z,99414.84
2022-11-16T10:07:13.063Z,99408.13
2022-11-16T10:10:18.115Z,99396.88
2022-11-16T10:14:04.384Z,99395.78
2022-11-16T10:17:32.288Z,99386.28
2022-11-16T10:21:09.656Z,99383.22
2022-11-16T10:24:18.690Z,99385.56
2022-11-16T10:27:39.459Z,99372.97
2022-11-16T10:31:08.251Z,99372.41
2022-11-16T10:34:19.977Z,99369.13
2022-11-16T10:37:29.597Z,99366.59
2022-11-16T10:40:39.857Z,99362.28
2022-11-16T10:43:43.529Z,99355.31
2022-11-16T10:46:57.062Z,99352.34
2022-11-16T10:50:08.758Z,99348.34
2022-11-16T10:53:16.098Z,99353.50
2022-11-16T10:56:31.911Z,99349.53
2022-11-16T10:59:46.719Z,99338.13
2022-11-16T11:02:50.222Z,99332.03
2022-11-16T11:05:53.784Z,99332.38
2022-11-16T11:09:15.848Z,99328.06
2022-11-16T11:12:38.529Z,99322.53
2022-11-16T11:15:42.834Z,99321.53
2022-11-16T11:18:45.943Z,99302.00
2022-11-16T11:21:49.304Z,99292.25
2022-11-16T11:24:52.260Z,99297.16
2022-11-16T11:28:07.258Z,99299.66
2022-11-16T11:31:27.383Z,99290.94
2022-11-16T11:34:34.864Z,99287.94
2022-11-16T11:37:39.428Z,99282.94
2022-11-16T11:40:57.553Z,99288.19
2022-11-16T11:44:18.367Z,99275.69
2022-11-16T11:51:26.071Z,99273.34
2022-11-16T11:54:35.892Z,99262.94
2022-11-16T11:57:42.437Z,99263.63
2022-11-16T12:00:54.199Z,99261.72
2022-11-16T12:04:34.899Z,99254.97
2022-11-16T12:07:59.344Z,99256.84
2022-11-16T12:11:48.656Z,99264.91
2022-11-16T12:15:15.869Z,99252.53
2022-11-16T12:18:30.663Z,99256.94
2022-11-16T12:21:56.536Z,99253.44
2022-11-16T12:25:25.198Z,99259.94
2022-11-16T12:28:51.859Z,99260.59
2022-11-16T12:32:29.662Z,99255.34
2022-11-16T12:35:47.289Z,99250.25
2022-11-16T12:39:05.014Z,99250.19
2022-11-16T12:42:40.454Z,99247.34
2022-11-16T12:46:07.947Z,99246.16
2022-11-16T12:49:13.802Z,99239.87
2022-11-16T12:52:22.644Z,99235.56
2022-11-16T12:55:43.425Z,99230.19
2022-11-16T12:59:06.365Z,99232.53
2022-11-16T13:02:27.544Z,99229.84
2022-11-16T13:05:42.500Z,99225.78
2022-11-16T13:08:54.440Z,99230.13
2022-11-16T13:12:14.047Z,99233.50
2022-11-16T13:15:20.516Z,99229.84
2022-11-16T13:18:25.298Z,99230.31
2022-11-16T13:21:49.578Z,99230.47
2022-11-16T13:24:52.332Z,99227.84
2022-11-16T13:28:06.564Z,99229.91
2022-11-16T13:31:32.046Z,99221.19
2022-11-16T13:34:39.015Z,99223.09
2022-11-16T13:37:50.810Z,99220.53
2022-11-16T13:40:53.372Z,99220.72
2022-11-16T13:43:56.618Z,99220.06
2022-11-16T13:47:22.755Z,99224.37
2022-11-16T13:50:37.255Z,99216.56
2022-11-16T13:57:25.755Z,99214.16
2022-11-16T14:00:33.557Z,99214.88
2022-11-16T14:03:38.753Z,99209.84
2022-11-16T14:06:44.199Z,99211.13
2022-11-16T14:09:49.251Z,99204.19
2022-11-16T14:12:53.731Z,99203.16
2022-11-16T14:16:20.005Z,99202.22
2022-11-16T14:19:52.049Z,99204.94
2022-11-16T14:23:12.995Z,99202.69
2022-11-16T14:26:41.055Z,99191.72
2022-11-16T14:30:21.162Z,99197.50
2022-11-16T14:33:36.572Z,99193.37
2022-11-16T14:36:45.318Z,99183.75
2022-11-16T14:39:50.401Z,99180.53
2022-11-16T14:43:16.045Z,99192.81
2022-11-16T14:46:26.955Z,99182.41
2022-11-16T14:49:35.740Z,99183.38
2022-11-16T14:52:43.854Z,99195.78
2022-11-16T14:55:46.766Z,99190.41
2022-11-16T14:58:53.803Z,99179.75
2022-11-16T15:01:58.382Z,99178.63
2022-11-16T15:05:01.425Z,99175.06
2022-11-16T15:08:15.703Z,99174.12
2022-11-16T15:11:48.601Z,99167.94
2022-11-16T15:14:54.759Z,99164.34
2022-11-16T15:18:00.229Z,99164.56
2022-11-16T15:21:03.039Z,99163.78
2022-11-16T15:24:29.294Z,99168.88
2022-11-16T15:27:34.947Z,99168.88
2022-11-16T15:30:40.332Z,99160.25
2022-11-16T15:33:45.458Z,99158.47
2022-11-16T15:36:48.834Z,99160.16
2022-11-16T15:39:52.003Z,99151.59
2022-11-16T15:42:55.714Z,99152.63
2022-11-16T15:45:59.669Z,99158.91
2022-11-16T15:49:02.891Z,99157.13
2022-11-16T15:52:05.848Z,99148.59
2022-11-16T15:55:40.684Z,99160.03
2022-11-16T15:58:44.224Z,99153.94
2022-11-16T16:01:46.706Z,99165.44
2022-11-16T16:04:49.903Z,99163.78
2022-11-16T16:07:52.371Z,99149.72
2022-11-16T16:11:01.018Z,99143.44
2022-11-16T16:14:04.505Z,99145.91
2022-11-16T16:17:10.317Z,99135.41
2022-11-16T16:20:21.782Z,99144.28
2022-11-16T16:23:25.599Z,99145.91
2022-11-16T16:26:28.086Z,99145.41
2022-11-16T16:29:30.810Z,99139.03
2022-11-16T16:32:36.959Z,99139.22
2022-11-16T16:35:39.739Z,99148.69
2022-11-16T16:38:42.876Z,99148.03
2022-11-16T16:41:45.698Z,99145.91
